createdAt,value
2018-08-19T00:01:41.760Z,17.73
2018-08-19T00:02:41.698Z,17.71
2018-08-19T00:04:34.518Z,17.68
2018-08-19T00:05:34.402Z,17.60
2018-08-19T00:07:27.174Z,17.55
2018-08-19T00:08:27.132Z,17.46
2018-08-19T00:10:19.886Z,17.53
2018-08-19T00:11:19.818Z,17.46
2018-08-19T00:13:12.601Z,17.51
2018-08-19T00:14:12.535Z,17.47
2018-08-19T00:16:05.363Z,17.47
2018-08-19T00:17:05.307Z,17.43
2018-08-19T00:18:58.057Z,17.46
2018-08-19T00:19:57.987Z,17.51
2018-08-19T00:21:50.868Z,17.40
2018-08-19T00:22:50.704Z,17.35
2018-08-19T00:24:43.486Z,17.45
2018-08-19T00:25:43.406Z,17.40
2018-08-19T00:27:36.197Z,17.35
2018-08-19T00:28:36.178Z,17.27
2018-08-19T00:30:28.935Z,17.22
2018-08-19T00:31:28.929Z,17.20
2018-08-19T00:33:21.661Z,17.28
2018-08-19T00:34:21.599Z,17.24
2018-08-19T00:36:14.601Z,17.27
2018-08-19T00:37:14.523Z,17.28
2018-08-19T00:39:07.341Z,17.33
2018-08-19T00:40:07.244Z,17.21
2018-08-19T00:42:00.052Z,17.25
2018-08-19T00:43:00.024Z,17.22
2018-08-19T00:44:52.792Z,17.33
2018-08-19T00:45:52.702Z,17.24
2018-08-19T00:47:45.492Z,17.20
2018-08-19T00:48:45.416Z,17.18
2018-08-19T00:50:38.274Z,17.21
2018-08-19T00:51:38.128Z,17.17
2018-08-19T00:53:30.917Z,17.20
2018-08-19T00:54:30.847Z,17.17
2018-08-19T00:56:23.620Z,17.18
2018-08-19T00:57:23.541Z,17.21
2018-08-19T00:59:16.340Z,17.18
2018-08-19T01:00:16.256Z,17.21
2018-08-19T01:02:09.035Z,17.18
2018-08-19T01:03:09.019Z,17.20
2018-08-19T01:05:01.794Z,17.22
2018-08-19T01:06:01.693Z,17.22
2018-08-19T01:07:54.465Z,17.20
2018-08-19T01:08:54.426Z,17.30
2018-08-19T01:10:47.212Z,17.18
2018-08-19T01:11:47.137Z,17.22
2018-08-19T01:13:39.908Z,17.17
2018-08-19T01:14:39.851Z,17.27
2018-08-19T01:16:32.639Z,17.09
2018-08-19T01:17:32.553Z,17.05
2018-08-19T01:19:25.369Z,17.12
2018-08-19T01:20:25.287Z,17.10
2018-08-19T01:22:18.098Z,17.18
2018-08-19T01:23:18.034Z,17.24
2018-08-19T01:25:10.853Z,17.21
2018-08-19T01:26:10.781Z,17.21
2018-08-19T01:28:03.545Z,17.36
2018-08-19T01:29:03.488Z,17.42
2018-08-19T01:30:56.271Z,17.42
2018-08-19T01:31:56.205Z,17.38
2018-08-19T01:33:48.976Z,17.42
2018-08-19T01:34:48.932Z,17.35
2018-08-19T01:36:41.720Z,17.33
2018-08-19T01:37:41.625Z,17.38
2018-08-19T01:39:34.413Z,17.27
2018-08-19T01:40:34.341Z,17.25
2018-08-19T01:42:27.141Z,17.15
2018-08-19T01:43:27.086Z,17.18
2018-08-19T01:45:19.871Z,17.17
2018-08-19T01:46:19.773Z,17.10
2018-08-19T01:48:12.550Z,17.05
2018-08-19T01:49:12.487Z,17.02
2018-08-19T01:51:05.313Z,17.10
2018-08-19T01:52:05.197Z,17.12
2018-08-19T01:53:57.965Z,17.14
2018-08-19T01:54:57.910Z,17.09
2018-08-19T01:56:50.811Z,17.07
2018-08-19T01:57:50.667Z,17.09
2018-08-19T01:59:43.613Z,17.12
2018-08-19T02:00:43.528Z,17.12
2018-08-19T02:02:36.606Z,17.05
2018-08-19T02:03:36.529Z,17.03
2018-08-19T02:05:29.373Z,17.09
2018-08-19T02:06:29.303Z,16.99
2018-08-19T02:08:22.247Z,17.02
2018-08-19T02:09:22.048Z,17.00
2018-08-19T02:11:14.838Z,16.91
2018-08-19T02:12:14.774Z,16.95
2018-08-19T02:14:07.691Z,16.88
2018-08-19T02:15:07.717Z,16.80
2018-08-19T02:17:00.759Z,16.80
2018-08-19T02:18:00.589Z,16.75
2018-08-19T02:19:53.280Z,16.82
2018-08-19T02:20:53.245Z,16.81
2018-08-19T02:22:46.236Z,16.80
2018-08-19T02:23:45.982Z,16.77
2018-08-19T02:25:39.056Z,16.75
2018-08-19T02:26:38.924Z,16.67
2018-08-19T02:28:32.200Z,16.69
2018-08-19T02:29:31.991Z,16.72
2018-08-19T02:31:24.906Z,16.70
2018-08-19T02:32:24.784Z,16.67
2018-08-19T02:34:17.725Z,16.65
2018-08-19T02:35:17.644Z,16.69
2018-08-19T02:37:10.487Z,16.55
2018-08-19T02:38:10.516Z,16.55
2018-08-19T02:40:03.297Z,16.66
2018-08-19T02:41:03.247Z,16.54
2018-08-19T02:42:56.036Z,16.62
2018-08-19T02:43:56.010Z,16.60
2018-08-19T02:45:49.025Z,16.54
2018-08-19T02:46:48.725Z,16.66
2018-08-19T02:48:41.538Z,16.62
2018-08-19T02:49:41.506Z,16.69
2018-08-19T02:51:34.354Z,16.65
2018-08-19T02:52:34.298Z,16.62
2018-08-19T02:54:27.059Z,16.63
2018-08-19T02:55:27.026Z,16.57
2018-08-19T02:57:19.886Z,16.50
2018-08-19T02:58:19.732Z,16.50
2018-08-19T03:00:12.574Z,16.44
2018-08-19T03:01:12.520Z,16.45
2018-08-19T03:03:05.397Z,16.48
2018-08-19T03:04:05.360Z,16.50
2018-08-19T03:05:58.422Z,16.45
2018-08-19T03:06:58.098Z,16.54
2018-08-19T03:08:51.053Z,16.48
2018-08-19T03:09:51.020Z,16.44
2018-08-19T03:11:43.863Z,16.50
2018-08-19T03:12:43.843Z,16.59
2018-08-19T03:14:36.741Z,16.45
2018-08-19T03:15:36.600Z,16.45
2018-08-19T03:17:29.646Z,16.41
2018-08-19T03:18:29.511Z,16.27
2018-08-19T03:20:22.494Z,16.18
2018-08-19T03:21:22.435Z,16.22
2018-08-19T03:23:15.423Z,16.25
2018-08-19T03:24:15.201Z,16.18
2018-08-19T03:26:08.352Z,16.25
2018-08-19T03:27:08.148Z,16.22
2018-08-19T03:29:00.994Z,16.22
2018-08-19T03:30:00.932Z,16.14
2018-08-19T03:31:53.719Z,16.29
2018-08-19T03:32:53.641Z,16.14
2018-08-19T03:34:46.415Z,16.32
2018-08-19T03:35:46.355Z,16.32
2018-08-19T03:37:39.157Z,16.33
2018-08-19T03:38:39.259Z,16.32
2018-08-19T03:40:31.933Z,16.30
2018-08-19T03:41:31.784Z,16.30
2018-08-19T03:43:24.591Z,16.40
2018-08-19T03:44:24.517Z,16.30
2018-08-19T03:46:17.354Z,16.27
2018-08-19T03:47:17.251Z,16.22
2018-08-19T03:49:10.076Z,16.17
2018-08-19T03:50:10.024Z,16.18
2018-08-19T03:52:02.805Z,16.22
2018-08-19T03:53:02.707Z,16.23
2018-08-19T03:54:55.482Z,16.16
2018-08-19T03:55:55.408Z,16.10
2018-08-19T03:57:48.257Z,16.01
2018-08-19T03:58:48.388Z,16.13
2018-08-19T04:00:40.945Z,15.98
2018-08-19T04:01:40.877Z,16.01
2018-08-19T04:03:33.663Z,16.01
2018-08-19T04:04:33.573Z,16.04
2018-08-19T04:06:26.344Z,15.99
2018-08-19T04:07:26.279Z,15.98
2018-08-19T04:09:19.132Z,16.07
2018-08-19T04:10:19.058Z,16.11
2018-08-19T04:12:11.852Z,16.04
2018-08-19T04:13:11.780Z,16.16
2018-08-19T04:15:04.558Z,16.27
2018-08-19T04:16:04.488Z,16.33
2018-08-19T04:17:57.272Z,16.30
2018-08-19T04:18:57.199Z,16.32
2018-08-19T04:20:49.975Z,16.44
2018-08-19T04:21:49.968Z,16.40
2018-08-19T04:23:42.733Z,16.48
2018-08-19T04:24:42.724Z,16.42
2018-08-19T04:26:35.443Z,16.52
2018-08-19T04:27:35.413Z,16.54
2018-08-19T04:29:28.148Z,16.67
2018-08-19T04:30:28.074Z,16.75
2018-08-19T04:32:20.873Z,16.81
2018-08-19T04:33:20.804Z,16.69
2018-08-19T04:35:13.636Z,16.72
2018-08-19T04:36:13.524Z,16.81
2018-08-19T04:38:06.386Z,16.80
2018-08-19T04:39:06.243Z,16.80
2018-08-19T04:40:59.011Z,16.80
2018-08-19T04:41:58.955Z,16.96
2018-08-19T04:43:51.965Z,16.96
2018-08-19T04:44:51.897Z,17.07
2018-08-19T04:46:44.743Z,17.05
2018-08-19T04:47:44.597Z,17.18
2018-08-19T04:49:37.376Z,17.17
2018-08-19T04:50:37.302Z,17.18
2018-08-19T04:52:30.076Z,17.21
2018-08-19T04:53:30.043Z,17.18
2018-08-19T04:55:22.805Z,17.22
2018-08-19T04:56:22.721Z,17.35
2018-08-19T04:58:15.552Z,17.24
2018-08-19T04:59:15.510Z,17.38
2018-08-19T05:01:08.271Z,17.40
2018-08-19T05:02:08.273Z,17.38
2018-08-19T05:04:00.975Z,17.39
2018-08-19T05:05:00.895Z,17.38
2018-08-19T05:06:53.660Z,17.51
2018-08-19T05:07:53.708Z,17.53
2018-08-19T05:09:46.381Z,17.54
2018-08-19T05:10:46.315Z,17.57
2018-08-19T05:12:39.086Z,17.62
2018-08-19T05:13:39.028Z,17.66
2018-08-19T05:15:31.893Z,17.73
2018-08-19T05:16:31.737Z,17.74
2018-08-19T05:18:24.512Z,17.73
2018-08-19T05:19:24.432Z,17.84
2018-08-19T05:21:17.384Z,17.94
2018-08-19T05:22:17.244Z,17.98
2018-08-19T05:24:10.030Z,18.02
2018-08-19T05:25:09.945Z,18.10
2018-08-19T05:27:02.729Z,18.10
2018-08-19T05:28:02.672Z,18.25
2018-08-19T05:29:55.442Z,18.25
2018-08-19T05:30:55.372Z,18.38
2018-08-19T05:32:48.137Z,18.59
2018-08-19T05:33:48.086Z,18.69
2018-08-19T05:35:40.858Z,18.72
2018-08-19T05:36:40.808Z,18.87
2018-08-19T05:38:33.606Z,19.13
2018-08-19T05:39:33.489Z,19.16
2018-08-19T05:41:26.261Z,19.61
2018-08-19T05:42:26.200Z,19.72
2018-08-19T05:44:18.982Z,20.07
2018-08-19T05:45:18.919Z,20.23
2018-08-19T05:47:11.784Z,20.53
2018-08-19T05:48:11.640Z,20.60
2018-08-19T05:50:04.438Z,20.78
2018-08-19T05:51:04.349Z,20.76
2018-08-19T05:52:57.483Z,20.85
2018-08-19T05:53:57.067Z,21.08
2018-08-19T05:55:49.844Z,21.05
2018-08-19T05:56:49.766Z,21.26
2018-08-19T05:58:42.549Z,21.93
2018-08-19T05:59:42.467Z,22.59
2018-08-19T06:01:35.416Z,23.94
2018-08-19T06:02:35.355Z,24.30
2018-08-19T06:04:28.152Z,24.98
2018-08-19T06:05:28.131Z,25.26
2018-08-19T06:07:20.844Z,25.61
2018-08-19T06:08:20.784Z,25.59
2018-08-19T06:10:13.570Z,25.86
2018-08-19T06:11:13.540Z,26.04
2018-08-19T06:13:06.270Z,26.76
2018-08-19T06:14:06.215Z,26.88
2018-08-19T06:15:59.114Z,27.30
2018-08-19T06:16:58.921Z,27.68
2018-08-19T06:18:51.751Z,28.39
2018-08-19T06:19:51.669Z,28.70
2018-08-19T06:21:44.444Z,29.03
2018-08-19T06:22:44.389Z,29.15
2018-08-19T06:24:37.208Z,29.23
2018-08-19T06:25:37.121Z,29.26
2018-08-19T06:27:29.892Z,29.60
2018-08-19T06:28:29.837Z,29.73
2018-08-19T06:30:22.698Z,30.04
2018-08-19T06:31:22.624Z,29.85
2018-08-19T06:33:15.418Z,30.32
2018-08-19T06:34:15.357Z,30.57
2018-08-19T06:36:08.171Z,30.75
2018-08-19T06:37:08.139Z,30.79
2018-08-19T06:39:00.883Z,31.19
2018-08-19T06:40:00.850Z,31.22
2018-08-19T06:41:53.614Z,31.47
2018-08-19T06:42:53.573Z,31.49
2018-08-19T06:44:46.359Z,31.49
2018-08-19T06:45:46.289Z,31.37
2018-08-19T06:47:39.090Z,31.42
2018-08-19T06:48:39.033Z,31.22
2018-08-19T06:50:31.896Z,30.16
2018-08-19T06:51:31.756Z,29.57
2018-08-19T06:53:24.548Z,28.70
2018-08-19T06:54:24.499Z,29.07
2018-08-19T06:56:17.322Z,28.92
2018-08-19T06:57:17.255Z,28.72
2018-08-19T06:59:10.064Z,28.33
2018-08-19T07:00:09.999Z,28.09
2018-08-19T07:02:02.785Z,27.81
2018-08-19T07:03:02.747Z,27.72
2018-08-19T07:04:55.532Z,27.62
2018-08-19T07:05:55.442Z,27.52
2018-08-19T07:07:48.316Z,27.43
2018-08-19T07:08:48.258Z,27.74
2018-08-19T07:10:41.050Z,27.87
2018-08-19T07:11:40.984Z,28.20
2018-08-19T07:13:33.781Z,29.60
2018-08-19T07:14:33.706Z,30.23
2018-08-19T07:16:26.519Z,31.22
2018-08-19T07:17:26.478Z,31.74
2018-08-19T07:19:19.273Z,32.32
2018-08-19T07:20:19.200Z,32.63
2018-08-19T07:22:11.988Z,33.18
2018-08-19T07:23:11.935Z,33.40
2018-08-19T07:25:04.729Z,33.55
2018-08-19T07:26:04.665Z,33.77
2018-08-19T07:27:57.447Z,34.19
2018-08-19T07:28:57.397Z,34.26
2018-08-19T07:30:50.212Z,33.99
2018-08-19T07:31:50.152Z,34.05
2018-08-19T07:33:42.936Z,34.38
2018-08-19T07:34:42.876Z,34.60
2018-08-19T07:36:35.683Z,33.96
2018-08-19T07:37:35.615Z,33.92
2018-08-19T07:39:28.420Z,34.28
2018-08-19T07:40:28.354Z,34.53
2018-08-19T07:42:21.142Z,34.65
2018-08-19T07:43:21.087Z,34.84
2018-08-19T07:45:13.894Z,35.10
2018-08-19T07:46:13.834Z,35.22
2018-08-19T07:48:06.612Z,35.61
2018-08-19T07:49:06.574Z,35.80
2018-08-19T07:50:59.376Z,35.77
2018-08-19T07:51:59.299Z,35.64
2018-08-19T07:53:52.094Z,35.34
2018-08-19T07:54:52.053Z,35.17
2018-08-19T07:56:44.869Z,35.00
2018-08-19T07:57:44.787Z,35.21
2018-08-19T07:59:37.647Z,35.43
2018-08-19T08:00:37.535Z,35.17
2018-08-19T08:02:30.389Z,34.64
2018-08-19T08:03:30.287Z,34.75
2018-08-19T08:05:23.154Z,34.55
2018-08-19T08:06:23.037Z,34.37
2018-08-19T08:08:15.882Z,34.03
2018-08-19T08:09:15.770Z,34.11
2018-08-19T08:11:08.579Z,34.14
2018-08-19T08:12:08.518Z,34.15
2018-08-19T08:14:01.315Z,34.55
2018-08-19T08:15:01.262Z,34.36
2018-08-19T08:16:54.097Z,34.87
2018-08-19T08:17:54.024Z,35.07
2018-08-19T08:19:46.824Z,35.32
2018-08-19T08:20:46.810Z,35.37
2018-08-19T08:22:39.585Z,35.78
2018-08-19T08:23:39.499Z,35.77
2018-08-19T08:25:32.316Z,35.68
2018-08-19T08:26:32.244Z,35.71
2018-08-19T08:28:25.043Z,36.02
2018-08-19T08:29:24.986Z,35.95
2018-08-19T08:31:17.799Z,35.80
2018-08-19T08:32:17.792Z,35.78
2018-08-19T08:34:10.598Z,35.93
2018-08-19T08:35:10.479Z,36.12
2018-08-19T08:37:03.302Z,36.28
2018-08-19T08:38:03.241Z,36.19
2018-08-19T08:39:56.112Z,36.40
2018-08-19T08:40:55.995Z,36.46
2018-08-19T08:42:48.803Z,36.38
2018-08-19T08:43:48.746Z,36.19
2018-08-19T08:45:41.555Z,36.27
2018-08-19T08:46:41.490Z,36.19
2018-08-19T08:48:34.288Z,35.83
2018-08-19T08:49:34.232Z,36.13
2018-08-19T08:51:27.192Z,36.05
2018-08-19T08:52:26.977Z,36.28
2018-08-19T08:54:19.795Z,35.89
2018-08-19T08:55:19.738Z,35.87
2018-08-19T08:57:12.543Z,36.05
2018-08-19T08:58:12.507Z,36.16
2018-08-19T09:00:05.284Z,36.15
2018-08-19T09:01:05.229Z,36.19
2018-08-19T09:02:58.059Z,36.21
2018-08-19T09:03:57.986Z,36.21
2018-08-19T09:05:50.822Z,35.65
2018-08-19T09:06:50.759Z,35.52
2018-08-19T09:08:43.553Z,35.61
2018-08-19T09:09:43.513Z,35.52
2018-08-19T09:11:36.321Z,35.43
2018-08-19T09:12:36.263Z,35.50
2018-08-19T09:14:29.071Z,35.47
2018-08-19T09:15:29.015Z,35.77
2018-08-19T09:17:21.822Z,36.19
2018-08-19T09:18:21.756Z,36.34
2018-08-19T09:20:14.557Z,36.34
2018-08-19T09:21:14.540Z,36.15
2018-08-19T09:23:07.506Z,36.08
2018-08-19T09:24:07.298Z,35.95
2018-08-19T09:26:00.132Z,36.16
2018-08-19T09:27:00.096Z,35.87
2018-08-19T09:28:52.882Z,35.66
2018-08-19T09:29:52.818Z,35.55
2018-08-19T09:31:45.633Z,35.56
2018-08-19T09:32:45.621Z,35.55
2018-08-19T09:34:38.367Z,35.31
2018-08-19T09:35:38.354Z,35.27
2018-08-19T09:37:31.247Z,34.80
2018-08-19T09:38:31.194Z,35.03
2018-08-19T09:40:23.992Z,34.80
2018-08-19T09:41:23.941Z,34.91
2018-08-19T09:43:16.760Z,35.28
2018-08-19T09:44:16.695Z,35.32
2018-08-19T09:46:09.515Z,35.66
2018-08-19T09:47:09.447Z,35.80
2018-08-19T09:49:02.286Z,35.91
2018-08-19T09:50:02.237Z,35.46
2018-08-19T09:51:55.045Z,35.46
2018-08-19T09:52:54.980Z,35.43
2018-08-19T09:54:47.783Z,35.17
2018-08-19T09:55:47.724Z,35.18
2018-08-19T09:57:40.570Z,35.28
2018-08-19T09:58:40.464Z,35.54
2018-08-19T10:00:33.259Z,35.62
2018-08-19T10:01:33.226Z,35.59
2018-08-19T10:03:26.010Z,35.55
2018-08-19T10:04:26.461Z,35.73
2018-08-19T10:06:18.786Z,36.02
2018-08-19T10:07:18.707Z,35.96
2018-08-19T10:09:11.538Z,35.95
2018-08-19T10:10:11.477Z,35.59
2018-08-19T10:12:04.284Z,35.47
2018-08-19T10:13:04.226Z,35.42
2018-08-19T10:14:57.876Z,35.73
2018-08-19T10:15:57.826Z,35.78
2018-08-19T10:17:50.630Z,35.98
2018-08-19T10:18:50.567Z,36.16
2018-08-19T10:20:43.356Z,35.77
2018-08-19T10:21:43.308Z,35.71
2018-08-19T10:23:36.119Z,35.55
2018-08-19T10:24:36.050Z,35.50
2018-08-19T10:26:28.860Z,35.09
2018-08-19T10:27:28.813Z,35.22
2018-08-19T10:29:21.616Z,34.98
2018-08-19T10:30:21.554Z,34.72
2018-08-19T10:32:14.366Z,34.61
2018-08-19T10:33:14.296Z,34.84
2018-08-19T10:35:07.095Z,35.06
2018-08-19T10:36:07.036Z,35.29
2018-08-19T10:37:59.839Z,35.25
2018-08-19T10:38:59.778Z,35.28
2018-08-19T10:40:52.589Z,35.18
2018-08-19T10:41:52.563Z,35.27
2018-08-19T10:43:45.408Z,35.03
2018-08-19T10:44:45.302Z,34.75
2018-08-19T10:46:38.089Z,34.73
2018-08-19T10:47:38.036Z,34.69
2018-08-19T10:49:30.862Z,33.97
2018-08-19T10:50:30.799Z,33.86
2018-08-19T10:52:23.619Z,33.59
2018-08-19T10:53:23.907Z,33.68
2018-08-19T10:55:16.337Z,34.06
2018-08-19T10:56:16.336Z,33.89
2018-08-19T10:58:09.112Z,33.94
2018-08-19T10:59:09.025Z,33.89
2018-08-19T11:01:01.810Z,33.86
2018-08-19T11:02:01.761Z,33.94
2018-08-19T11:03:54.577Z,33.84
2018-08-19T11:04:54.500Z,33.93
2018-08-19T11:06:47.325Z,34.08
2018-08-19T11:07:47.313Z,34.09
2018-08-19T11:09:40.061Z,34.00
2018-08-19T11:10:39.988Z,33.79
2018-08-19T11:12:32.818Z,33.62
2018-08-19T11:13:32.820Z,33.59
2018-08-19T11:15:25.556Z,33.60
2018-08-19T11:16:25.489Z,33.49
2018-08-19T11:18:18.312Z,33.38
2018-08-19T11:19:18.258Z,33.14
2018-08-19T11:21:11.098Z,33.12
2018-08-19T11:22:10.982Z,33.03
2018-08-19T11:24:03.762Z,32.95
2018-08-19T11:25:03.691Z,32.84
2018-08-19T11:26:56.513Z,32.56
2018-08-19T11:27:56.450Z,32.29
2018-08-19T11:29:49.247Z,32.40
2018-08-19T11:30:49.178Z,32.35
2018-08-19T11:32:41.962Z,32.39
2018-08-19T11:33:41.908Z,32.29
2018-08-19T11:35:34.710Z,32.35
2018-08-19T11:36:34.641Z,32.21
2018-08-19T11:38:27.468Z,32.09
2018-08-19T11:39:27.373Z,31.97
2018-08-19T11:41:20.188Z,31.95
2018-08-19T11:42:20.140Z,31.99
2018-08-19T11:44:12.918Z,31.75
2018-08-19T11:45:12.841Z,31.65
2018-08-19T11:47:05.637Z,31.45
2018-08-19T11:48:05.589Z,31.22
2018-08-19T11:49:58.384Z,31.15
2018-08-19T11:50:58.311Z,31.16
2018-08-19T11:52:51.571Z,30.76
2018-08-19T11:53:51.045Z,30.64
2018-08-19T11:55:43.832Z,30.64
2018-08-19T11:56:43.761Z,30.51
2018-08-19T11:58:36.550Z,30.64
2018-08-19T11:59:36.526Z,30.56
2018-08-19T12:01:29.267Z,30.59
2018-08-19T12:02:29.208Z,30.68
2018-08-19T12:04:22.036Z,30.42
2018-08-19T12:05:21.974Z,30.38
2018-08-19T12:07:14.782Z,30.38
2018-08-19T12:08:14.678Z,30.26
2018-08-19T12:10:07.469Z,30.15
2018-08-19T12:11:07.396Z,30.01
2018-08-19T12:13:00.175Z,30.03
2018-08-19T12:14:00.114Z,30.06
2018-08-19T12:15:52.914Z,30.03
2018-08-19T12:16:52.909Z,30.11
2018-08-19T12:18:45.653Z,30.04
2018-08-19T12:19:45.576Z,29.99
2018-08-19T12:21:38.381Z,30.07
2018-08-19T12:22:38.310Z,30.06
2018-08-19T12:24:31.116Z,30.08
2018-08-19T12:25:31.030Z,30.22
2018-08-19T12:27:23.922Z,30.15
2018-08-19T12:28:23.769Z,30.26
2018-08-19T12:30:16.568Z,30.19
2018-08-19T12:31:16.492Z,30.10
2018-08-19T12:33:09.306Z,30.13
2018-08-19T12:34:09.256Z,30.13
2018-08-19T12:36:02.060Z,30.16
2018-08-19T12:37:02.052Z,30.18
2018-08-19T12:38:54.844Z,30.15
2018-08-19T12:39:54.776Z,30.13
2018-08-19T12:41:47.569Z,30.08
2018-08-19T12:42:47.573Z,30.07
2018-08-19T12:44:40.473Z,29.99
2018-08-19T12:45:40.271Z,29.82
2018-08-19T12:47:33.177Z,29.74
2018-08-19T12:48:33.118Z,29.74
2018-08-19T12:50:25.906Z,29.81
2018-08-19T12:51:25.862Z,29.76
2018-08-19T12:53:18.629Z,29.74
2018-08-19T12:54:18.570Z,29.78
2018-08-19T12:56:11.353Z,29.70
2018-08-19T12:57:11.281Z,29.63
2018-08-19T12:59:04.085Z,29.71
2018-08-19T13:00:04.004Z,29.71
2018-08-19T13:01:56.851Z,29.76
2018-08-19T13:02:56.876Z,29.76
2018-08-19T13:04:49.676Z,29.84
2018-08-19T13:05:49.538Z,30.01
2018-08-19T13:07:42.382Z,30.06
2018-08-19T13:08:42.320Z,29.97
2018-08-19T13:10:35.232Z,30.00
2018-08-19T13:11:35.085Z,29.92
2018-08-19T13:13:27.884Z,29.86
2018-08-19T13:14:27.808Z,29.91
2018-08-19T13:16:20.623Z,29.69
2018-08-19T13:17:20.543Z,29.74
2018-08-19T13:19:13.378Z,29.79
2018-08-19T13:20:13.283Z,29.78
2018-08-19T13:22:06.102Z,29.91
2018-08-19T13:23:06.051Z,29.76
2018-08-19T13:24:58.841Z,29.78
2018-08-19T13:25:58.786Z,29.71
2018-08-19T13:27:51.574Z,29.63
2018-08-19T13:28:51.519Z,29.67
2018-08-19T13:30:44.335Z,29.71
2018-08-19T13:31:44.261Z,29.73
2018-08-19T13:33:37.035Z,29.76
2018-08-19T13:34:36.980Z,29.76
2018-08-19T13:36:29.774Z,29.74
2018-08-19T13:37:29.725Z,29.86
2018-08-19T13:39:22.509Z,29.79
2018-08-19T13:40:22.439Z,29.79
2018-08-19T13:42:15.236Z,29.94
2018-08-19T13:43:15.175Z,29.85
2018-08-19T13:45:07.978Z,29.81
2018-08-19T13:46:07.908Z,29.81
2018-08-19T13:48:00.701Z,29.92
2018-08-19T13:49:00.643Z,30.00
2018-08-19T13:50:53.432Z,29.92
2018-08-19T13:51:53.361Z,29.85
2018-08-19T13:53:46.183Z,29.94
2018-08-19T13:54:46.112Z,29.97
2018-08-19T13:56:38.909Z,30.16
2018-08-19T13:57:38.852Z,30.19
2018-08-19T13:59:31.648Z,30.18
2018-08-19T14:00:31.571Z,30.16
2018-08-19T14:02:24.352Z,30.11
2018-08-19T14:03:24.288Z,30.15
2018-08-19T14:05:17.171Z,30.11
2018-08-19T14:06:17.022Z,30.18
2018-08-19T14:08:09.810Z,30.29
2018-08-19T14:09:09.745Z,30.19
2018-08-19T14:11:02.540Z,30.03
2018-08-19T14:12:02.476Z,30.03
2018-08-19T14:13:55.263Z,29.97
2018-08-19T14:14:55.205Z,30.01
2018-08-19T14:16:48.003Z,30.01
2018-08-19T14:17:47.927Z,30.00
2018-08-19T14:19:40.800Z,29.97
2018-08-19T14:20:40.659Z,29.99
2018-08-19T14:22:33.436Z,30.00
2018-08-19T14:23:33.386Z,29.92
2018-08-19T14:25:26.178Z,29.97
2018-08-19T14:26:26.140Z,29.97
2018-08-19T14:28:18.878Z,30.07
2018-08-19T14:29:18.824Z,30.16
2018-08-19T14:31:11.646Z,30.22
2018-08-19T14:32:11.563Z,30.19
2018-08-19T14:34:04.355Z,30.26
2018-08-19T14:35:04.286Z,30.16
2018-08-19T14:36:57.128Z,30.01
2018-08-19T14:37:57.006Z,29.99
2018-08-19T14:39:49.802Z,29.92
2018-08-19T14:40:49.739Z,29.91
2018-08-19T14:42:42.512Z,29.82
2018-08-19T14:43:42.455Z,29.91
2018-08-19T14:45:35.240Z,30.00
2018-08-19T14:46:35.245Z,29.99
2018-08-19T14:48:27.968Z,30.04
2018-08-19T14:49:27.907Z,30.07
2018-08-19T14:51:20.712Z,30.16
2018-08-19T14:52:20.634Z,30.11
2018-08-19T14:54:13.451Z,30.13
2018-08-19T14:55:13.390Z,30.16
2018-08-19T14:57:06.174Z,30.03
2018-08-19T14:58:06.103Z,29.97
2018-08-19T14:59:58.922Z,30.00
2018-08-19T15:00:58.840Z,29.99
2018-08-19T15:02:51.634Z,30.10
2018-08-19T15:03:51.583Z,30.04
2018-08-19T15:05:44.405Z,30.04
2018-08-19T15:06:44.336Z,30.18
2018-08-19T15:08:37.142Z,30.13
2018-08-19T15:09:37.093Z,30.11
2018-08-19T15:11:29.882Z,30.10
2018-08-19T15:12:29.824Z,30.19
2018-08-19T15:14:22.592Z,30.16
2018-08-19T15:15:22.541Z,30.18
2018-08-19T15:17:15.333Z,30.25
2018-08-19T15:18:15.283Z,30.16
2018-08-19T15:20:08.077Z,30.19
2018-08-19T15:21:08.005Z,30.11
2018-08-19T15:23:00.812Z,30.03
2018-08-19T15:24:00.736Z,30.00
2018-08-19T15:25:53.542Z,29.88
2018-08-19T15:26:53.469Z,29.92
2018-08-19T15:28:46.401Z,29.88
2018-08-19T15:29:46.345Z,29.94
2018-08-19T15:31:39.201Z,29.91
2018-08-19T15:32:39.503Z,29.88
2018-08-19T15:34:31.931Z,29.74
2018-08-19T15:35:31.869Z,29.85
2018-08-19T15:37:24.659Z,29.74
2018-08-19T15:38:24.590Z,29.78
2018-08-19T15:40:17.394Z,29.74
2018-08-19T15:41:17.321Z,29.79
2018-08-19T15:43:10.295Z,29.85
2018-08-19T15:44:10.041Z,29.81
2018-08-19T15:46:02.855Z,29.79
2018-08-19T15:47:02.788Z,29.76
2018-08-19T15:48:55.571Z,29.73
2018-08-19T15:49:55.512Z,29.70
2018-08-19T15:51:48.312Z,29.79
2018-08-19T15:52:48.301Z,29.73
2018-08-19T15:54:41.079Z,29.78
2018-08-19T15:55:41.023Z,29.64
2018-08-19T15:57:33.832Z,29.51
2018-08-19T15:58:33.782Z,29.48
2018-08-19T16:00:26.550Z,29.55
2018-08-19T16:01:26.498Z,29.49
2018-08-19T16:03:19.301Z,29.64
2018-08-19T16:04:19.222Z,29.58
2018-08-19T16:06:12.035Z,29.57
2018-08-19T16:07:11.957Z,29.48
2018-08-19T16:09:04.757Z,29.45
2018-08-19T16:10:04.698Z,29.55
2018-08-19T16:11:57.485Z,29.60
2018-08-19T16:12:57.441Z,29.58
2018-08-19T16:14:50.228Z,29.48
2018-08-19T16:15:50.158Z,29.60
2018-08-19T16:17:43.008Z,29.51
2018-08-19T16:18:42.944Z,29.57
2018-08-19T16:20:35.729Z,29.64
2018-08-19T16:21:35.684Z,29.62
2018-08-19T16:23:28.493Z,29.82
2018-08-19T16:24:28.411Z,29.99
2018-08-19T16:26:21.258Z,29.92
2018-08-19T16:27:21.173Z,29.81
2018-08-19T16:29:13.964Z,29.64
2018-08-19T16:30:13.926Z,29.55
2018-08-19T16:32:06.713Z,29.58
2018-08-19T16:33:06.638Z,29.49
2018-08-19T16:34:59.426Z,29.33
2018-08-19T16:35:59.403Z,29.26
2018-08-19T16:37:52.174Z,29.26
2018-08-19T16:38:52.105Z,29.17
2018-08-19T16:40:44.885Z,29.15
2018-08-19T16:41:44.830Z,29.08
2018-08-19T16:43:37.626Z,28.98
2018-08-19T16:44:37.566Z,29.02
2018-08-19T16:46:30.357Z,28.95
2018-08-19T16:47:30.292Z,28.87
2018-08-19T16:49:23.050Z,28.92
2018-08-19T16:50:23.038Z,28.87
2018-08-19T16:52:15.792Z,28.83
2018-08-19T16:53:15.722Z,28.80
2018-08-19T16:55:08.499Z,28.85
2018-08-19T16:56:08.438Z,28.69
2018-08-19T16:58:01.243Z,28.70
2018-08-19T16:59:01.205Z,28.69
2018-08-19T17:00:53.967Z,28.62
2018-08-19T17:01:53.899Z,28.64
2018-08-19T17:03:46.718Z,28.57
2018-08-19T17:04:46.632Z,28.48
2018-08-19T17:06:39.460Z,28.36
2018-08-19T17:07:39.367Z,28.43
2018-08-19T17:09:32.158Z,28.35
2018-08-19T17:10:32.118Z,28.33
2018-08-19T17:12:24.964Z,28.23
2018-08-19T17:13:24.838Z,28.28
2018-08-19T17:15:17.641Z,28.11
2018-08-19T17:16:17.561Z,28.11
2018-08-19T17:18:10.375Z,28.13
2018-08-19T17:19:10.303Z,28.09
2018-08-19T17:21:03.110Z,28.03
2018-08-19T17:22:03.033Z,28.08
2018-08-19T17:23:55.825Z,27.98
2018-08-19T17:24:55.760Z,27.96
2018-08-19T17:26:48.600Z,28.02
2018-08-19T17:27:48.515Z,27.98
2018-08-19T17:29:41.331Z,27.84
2018-08-19T17:30:41.232Z,27.76
2018-08-19T17:32:34.054Z,27.80
2018-08-19T17:33:33.972Z,27.72
2018-08-19T17:35:26.736Z,27.69
2018-08-19T17:36:26.680Z,27.68
2018-08-19T17:38:19.483Z,27.69
2018-08-19T17:39:19.485Z,27.69
2018-08-19T17:41:12.202Z,27.61
2018-08-19T17:42:12.140Z,27.50
2018-08-19T17:44:05.055Z,27.38
2018-08-19T17:45:04.897Z,27.34
2018-08-19T17:46:57.677Z,27.39
2018-08-19T17:47:57.723Z,27.33
2018-08-19T17:49:50.422Z,27.21
2018-08-19T17:50:50.340Z,27.27
2018-08-19T17:52:43.144Z,27.20
2018-08-19T17:53:43.066Z,27.06
2018-08-19T17:55:35.840Z,27.08
2018-08-19T17:56:35.783Z,27.08
2018-08-19T17:58:28.568Z,26.96
2018-08-19T17:59:28.741Z,27.01
2018-08-19T18:01:21.277Z,26.96
2018-08-19T18:02:21.230Z,26.90
2018-08-19T18:04:14.055Z,26.90
2018-08-19T18:05:13.975Z,26.91
2018-08-19T18:07:06.730Z,26.83
2018-08-19T18:08:06.661Z,26.79
2018-08-19T18:09:59.683Z,26.76
2018-08-19T18:10:59.651Z,26.72
2018-08-19T18:12:52.433Z,26.69
2018-08-19T18:13:52.354Z,26.60
2018-08-19T18:15:45.130Z,26.59
2018-08-19T18:16:45.079Z,26.60
2018-08-19T18:18:37.878Z,26.59
2018-08-19T18:19:37.807Z,26.41
2018-08-19T18:21:30.606Z,26.42
2018-08-19T18:22:30.546Z,26.34
2018-08-19T18:24:23.368Z,26.27
2018-08-19T18:25:23.329Z,26.23
2018-08-19T18:27:16.062Z,26.12
2018-08-19T18:28:16.002Z,25.96
2018-08-19T18:30:08.815Z,25.90
2018-08-19T18:31:08.741Z,25.83
2018-08-19T18:33:01.530Z,25.69